Time;durP1;ratioP1;P1;durP2;ratioP2;P2;SDS_P1;SDS_P2;PMS_P1;PMS_P2;Temp;Humidity;BMP_temperature;BMP_pressure;BME280_temperature;BME280_humidity;BME280_pressure;Samples;Min_cycle;Max_cycle;Signal;HPM_P1;HPM_P2
2022/04/06 00:01:16;;;;;;;;;;;;;;;8.06;64.87;99655.95;1771250;79;20186;-57
2022/04/06 00:04:15;;;;;;;;;;;;;;;8.05;64.96;99648.81;1773971;81;20197;-57
2022/04/06 00:07:07;;;;;;;;;;;;;;;8.05;65.04;99656.13;1774048;81;20233;-57
2022/04/06 00:10:12;;;;;;;;;;;;;;;8.04;65.14;99665.34;1773793;79;20178;-56
2022/04/06 00:13:19;;;;;;;;;;;;;;;8.04;65.21;99657.99;1767161;81;20293;-57
2022/04/06 00:16:25;;;;;;;;;;;;;;;8.06;65.33;99661.40;1773871;79;20205;-57
2022/04/06 00:19:30;;;;;;;;;;;;;;;8.07;65.30;99662.26;1774083;81;20233;-57
2022/04/06 00:22:35;;;;;;;;;;;;;;;8.07;65.20;99669.07;1773941;81;20272;-57
2022/04/06 00:25:41;;;;;;;;;;;;;;;8.07;65.15;99668.53;1773953;79;20538;-57
2022/04/06 00:28:46;;;;;;;;;;;;;;;8.08;65.15;99675.70;1773954;81;20513;-59
2022/04/06 00:31:51;;;;;;;;;;;;;;;8.11;65.12;99680.80;1773969;79;20194;-57
2022/04/06 00:38:19;;;;;;;;;;;;;;;8.13;65.05;99680.12;1773949;81;20214;-57
2022/04/06 00:41:23;;;;;;;;;;;;;;;8.13;65.08;99684.20;1773932;79;20253;-57
2022/04/06 00:44:29;;;;;;;;;;;;;;;8.13;65.05;99679.26;1773783;81;20209;-59
2022/04/06 00:47:34;;;;;;;;;;;;;;;8.13;65.08;99683.34;1787680;80;20229;-58
2022/04/06 00:50:41;;;;;;;;;;;;;;;8.10;65.10;99683.20;1773886;79;20251;-56
2022/04/06 00:53:47;;;;;;;;;;;;;;;8.09;65.08;99688.80;1774023;81;20276;-58
2022/04/06 00:56:54;;;;;;;;;;;;;;;8.06;65.18;99690.52;1773930;79;20266;-57
2022/04/06 01:00:02;;;;;;;;;;;;;;;8.03;65.18;99685.42;1772353;79;20241;-57
2022/04/06 01:03:08;;;;;;;;;;;;;;;7.98;65.22;99691.41;1773882;81;20558;-58
2022/04/06 01:06:15;;;;;;;;;;;;;;;7.94;65.34;99687.86;1774218;79;20186;-58
2022/04/06 01:09:22;;;;;;;;;;;;;;;7.90;65.44;99686.49;1773682;80;20198;-58
2022/04/06 01:12:28;;;;;;;;;;;;;;;7.84;65.56;99690.78;1773859;81;20210;-57
2022/04/06 01:15:34;;;;;;;;;;;;;;;7.81;65.68;99690.28;1784898;80;20197;-57
2022/04/06 01:18:41;;;;;;;;;;;;;;;7.78;65.76;99691.99;1773364;80;20186;-56
2022/04/06 01:21:46;;;;;;;;;;;;;;;7.74;65.81;99693.38;1775487;79;20182;-57
2022/04/06 01:24:52;;;;;;;;;;;;;;;7.68;65.89;99700.86;1773879;79;20206;-58
2022/04/06 01:27:58;;;;;;;;;;;;;;;7.60;66.06;99708.05;1773800;81;20186;-58
2022/04/06 01:31:03;;;;;;;;;;;;;;;7.53;66.22;99701.58;1773827;79;20214;-58
2022/04/06 01:34:09;;;;;;;;;;;;;;;7.47;66.38;99702.28;1774057;81;20269;-57
2022/04/06 01:37:14;;;;;;;;;;;;;;;7.43;66.52;99710.47;1773400;80;20218;-58
2022/04/06 01:40:19;;;;;;;;;;;;;;;7.38;66.69;99702.46;1785621;79;20178;-58
2022/04/06 01:43:24;;;;;;;;;;;;;;;7.33;66.84;99716.59;1775391;80;20198;-58
2022/04/06 01:46:28;;;;;;;;;;;;;;;7.30;66.97;99714.22;1774292;79;20198;-58
2022/04/06 01:52:56;;;;;;;;;;;;;;;7.25;67.21;99722.54;1789468;80;20297;-58
2022/04/06 01:56:03;;;;;;;;;;;;;;;7.22;67.30;99739.22;1774188;79;20265;-58
2022/04/06 01:59:09;;;;;;;;;;;;;;;7.18;67.43;99733.79;1765472;80;20178;-57
2022/04/06 02:02:13;;;;;;;;;;;;;;;7.17;67.53;99742.95;1774595;78;20194;-58
2022/04/06 02:05:18;;;;;;;;;;;;;;;7.13;67.64;99740.25;1773851;79;20194;-58
2022/04/06 02:08:24;;;;;;;;;;;;;;;7.11;67.70;99739.06;1773902;81;20237;-59
2022/04/06 02:11:28;;;;;;;;;;;;;;;7.10;67.75;99750.94;1773962;79;20217;-59
2022/04/06 02:14:33;;;;;;;;;;;;;;;7.07;67.78;99748.56;1773902;81;20226;-58
2022/04/06 02:17:37;;;;;;;;;;;;;;;7.06;67.86;99753.67;1774025;81;20229;-58
2022/04/06 02:20:42;;;;;;;;;;;;;;;7.05;67.90;99753.34;1773870;79;20182;-57
2022/04/06 02:23:47;;;;;;;;;;;;;;;7.06;67.95;99744.66;1774040;80;20174;-58
2022/04/06 02:26:52;;;;;;;;;;;;;;;7.04;67.96;99748.08;1773744;79;20182;-58
2022/04/06 02:29:58;;;;;;;;;;;;;;;7.03;67.98;99758.59;1773841;79;20298;-59
2022/04/06 02:33:05;;;;;;;;;;;;;;;6.99;68.05;99753.99;1773846;81;20202;-58
2022/04/06 02:36:12;;;;;;;;;;;;;;;6.96;68.09;99757.59;1774003;79;20202;-58
2022/04/06 02:39:17;;;;;;;;;;;;;;;6.92;68.19;99754.34;1773972;81;20193;-58
2022/04/06 02:42:22;;;;;;;;;;;;;;;6.87;68.28;99764.87;1773894;81;20198;-57
2022/04/06 02:45:25;;;;;;;;;;;;;;;6.83;68.41;99772.18;1773818;79;20218;-58
2022/04/06 02:48:31;;;;;;;;;;;;;;;6.75;68.54;99779.83;1773855;81;20542;-57
2022/04/06 02:51:36;;;;;;;;;;;;;;;6.69;68.68;99778.27;1773638;79;20221;-58
2022/04/06 02:54:41;;;;;;;;;;;;;;;6.64;68.77;99788.30;1774038;79;20178;-58
2022/04/06 02:57:47;;;;;;;;;;;;;;;6.55;68.92;99789.27;1774007;81;20186;-58
2022/04/06 03:00:54;;;;;;;;;;;;;;;6.50;69.09;99793.51;1773746;79;20186;-57
2022/04/06 03:04:01;;;;;;;;;;;;;;;6.45;69.21;99795.36;1774759;78;20186;-58
2022/04/06 03:07:05;;;;;;;;;;;;;;;6.38;69.39;99793.44;1773750;81;20554;-58
2022/04/06 03:10:13;;;;;;;;;;;;;;;6.28;69.54;99804.97;1774062;79;20197;-58
2022/04/06 03:13:21;;;;;;;;;;;;;;;6.20;69.72;99812.55;1773997;81;20183;-58
2022/04/06 03:16:26;;;;;;;;;;;;;;;6.14;69.96;99826.78;1773785;79;20218;-59
2022/04/06 03:19:33;;;;;;;;;;;;;;;6.09;70.17;99817.77;1773749;81;20201;-58
2022/04/06 03:22:37;;;;;;;;;;;;;;;6.02;70.33;99822.12;1773843;81;20194;-58
2022/04/06 03:25:42;;;;;;;;;;;;;;;5.98;70.44;99823.97;1773967;79;20194;-58
2022/04/06 03:28:47;;;;;;;;;;;;;;;5.93;70.56;99816.31;1773946;81;20205;-58
2022/04/06 03:31:51;;;;;;;;;;;;;;;5.88;70.73;99817.29;1773852;79;20201;-57
2022/04/06 03:34:58;;;;;;;;;;;;;;;5.84;70.91;99819.13;1773682;79;20205;-58
2022/04/06 03:37:56;;;;;;;;;;;;;;;5.81;71.09;99819.42;1773995;81;20178;-58
2022/04/06 03:41:01;;;;;;;;;;;;;;;5.79;71.20;99827.73;1773811;79;20190;-57
2022/04/06 03:44:05;;;;;;;;;;;;;;;5.78;71.29;99827.89;1764902;80;20202;-58
2022/04/06 03:47:10;;;;;;;;;;;;;;;5.77;71.37;99839.77;1751839;80;20224;-58
2022/04/06 03:50:19;;;;;;;;;;;;;;;5.75;71.39;99846.72;1743027;81;20596;-57
2022/04/06 03:53:26;;;;;;;;;;;;;;;5.75;71.46;99851.29;1742882;82;20232;-57
2022/04/06 03:56:34;;;;;;;;;;;;;;;5.72;71.44;99847.53;1742953;81;20196;-59
2022/04/06 03:59:38;;;;;;;;;;;;;;;5.70;71.47;99844.98;1742770;81;20196;-58
2022/04/06 04:02:41;;;;;;;;;;;;;;;5.69;71.53;99849.21;1743320;82;20196;-58
2022/04/06 04:05:45;;;;;;;;;;;;;;;5.69;71.60;99848.69;1739653;81;20212;-55
2022/04/06 04:08:50;;;;;;;;;;;;;;;5.71;71.73;99859.39;1739295;82;20552;-58
2022/04/06 04:11:59;;;;;;;;;;;;;;;5.79;71.81;99873.03;1738918;81;20208;-58
2022/04/06 04:14:51;;;;;;;;;;;;;;;5.85;71.73;99864.31;1739049;81;20219;-55
2022/04/06 04:17:56;;;;;;;;;;;;;;;5.89;71.72;99873.83;1739092;82;20220;-58
2022/04/06 04:24:25;;;;;;;;;;;;;;;6.03;71.81;99878.19;1739990;82;20528;-57
2022/04/06 04:27:31;;;;;;;;;;;;;;;6.20;71.77;99879.13;1739861;82;20219;-58
2022/04/06 04:30:37;;;;;;;;;;;;;;;6.33;71.61;99878.19;1740160;81;20243;-57
2022/04/06 04:33:42;;;;;;;;;;;;;;;6.46;71.55;99886.77;1740177;82;20196;-57
2022/04/06 04:36:49;;;;;;;;;;;;;;;6.59;71.40;99893.98;1740004;81;20200;-57
2022/04/06 04:39:55;;;;;;;;;;;;;;;6.70;71.22;99895.55;1740347;81;20188;-57
2022/04/06 04:43:04;;;;;;;;;;;;;;;6.87;71.05;99892.73;1739185;82;20267;-57
2022/04/06 04:46:10;;;;;;;;;;;;;;;7.07;70.67;99909.13;1740069;81;20181;-58
2022/04/06 04:49:16;;;;;;;;;;;;;;;7.20;70.26;99908.14;1739792;82;20544;-57
2022/04/06 04:52:22;;;;;;;;;;;;;;;7.34;69.91;99913.47;1739969;82;20195;-58
2022/04/06 04:55:29;;;;;;;;;;;;;;;7.42;69.49;99919.77;1737483;81;20220;-57
2022/04/06 04:58:35;;;;;;;;;;;;;;;7.56;69.32;99919.11;1738098;82;20212;-58
2022/04/06 05:01:44;;;;;;;;;;;;;;;7.71;69.07;99929.37;1735961;82;20540;-58
2022/04/06 05:04:49;;;;;;;;;;;;;;;7.86;68.84;99926.30;1718466;79;20268;-59
2022/04/06 05:07:53;;;;;;;;;;;;;;;7.99;68.52;99934.29;1735484;82;20568;-58
2022/04/06 05:10:58;;;;;;;;;;;;;;;8.13;68.29;99940.95;1763092;80;20570;-60
2022/04/06 05:14:04;;;;;;;;;;;;;;;8.22;67.69;99946.23;1795547;80;20210;-58
2022/04/06 05:17:14;;;;;;;;;;;;;;;8.29;67.30;99943.70;1776959;79;20206;-59
2022/04/06 05:20:20;;;;;;;;;;;;;;;8.36;67.00;99943.33;1740437;81;20552;-59
2022/04/06 05:23:27;;;;;;;;;;;;;;;8.42;66.73;99955.77;1740968;82;20215;-57
2022/04/06 05:26:33;;;;;;;;;;;;;;;8.51;66.34;99962.08;1771505;81;20217;-58
2022/04/06 05:29:37;;;;;;;;;;;;;;;8.60;66.09;99966.48;1770209;81;20566;-60
2022/04/06 05:32:45;;;;;;;;;;;;;;;8.66;65.78;99957.59;1771635;80;20198;-59
2022/04/06 05:35:51;;;;;;;;;;;;;;;8.67;65.79;99957.95;1771829;79;20206;-59
2022/04/06 05:38:58;;;;;;;;;;;;;;;8.66;65.92;99960.33;1771665;81;20201;-58
2022/04/06 05:42:12;;;;;;;;;;;;;;;8.69;65.97;99968.16;1755850;80;20204;-61
2022/04/06 05:45:28;;;;;;;;;;;;;;;8.68;65.48;99970.56;1757920;79;20271;-59
2022/04/06 05:48:34;;;;;;;;;;;;;;;8.62;65.46;99963.95;1755002;80;20257;-59
2022/04/06 05:51:41;;;;;;;;;;;;;;;8.60;65.54;99960.53;1758330;80;20241;-58
2022/04/06 05:54:45;;;;;;;;;;;;;;;8.64;65.69;99958.31;1758457;80;20213;-58
2022/04/06 05:57:52;;;;;;;;;;;;;;;8.73;65.72;99967.67;1755351;80;20253;-59
2022/04/06 06:00:57;;;;;;;;;;;;;;;8.85;65.18;99966.77;1750986;80;20261;-57
2022/04/06 06:04:07;;;;;;;;;;;;;;;8.94;64.89;99977.48;1750292;80;20209;-61
2022/04/06 06:07:13;;;;;;;;;;;;;;;9.05;64.37;99979.00;1753899;79;20249;-56
2022/04/06 06:10:23;;;;;;;;;;;;;;;9.12;64.17;99979.98;1750810;80;20652;-59
2022/04/06 06:13:30;;;;;;;;;;;;;;;9.22;63.50;99977.05;1754771;80;20257;-60
2022/04/06 06:16:35;;;;;;;;;;;;;;;9.33;63.18;99987.08;1756365;81;20209;-59
2022/04/06 06:19:41;;;;;;;;;;;;;;;9.46;62.31;100011.95;1755792;81;20281;-57
2022/04/06 06:22:46;;;;;;;;;;;;;;;9.56;61.72;100011.19;1754614;81;20258;-58
2022/04/06 06:25:51;;;;;;;;;;;;;;;9.65;61.38;100021.58;1763463;79;20613;-55
2022/04/06 06:28:58;;;;;;;;;;;;;;;9.69;60.87;100021.04;1767025;80;20373;-59
2022/04/06 06:32:04;;;;;;;;;;;;;;;9.70;60.86;100022.77;1762317;80;20197;-59
2022/04/06 06:35:11;;;;;;;;;;;;;;;9.75;60.56;100026.32;1752834;80;20253;-58
2022/04/06 06:38:19;;;;;;;;;;;;;;;9.84;60.60;100027.46;1751121;81;20209;-60
2022/04/06 06:41:24;;;;;;;;;;;;;;;9.92;60.05;100021.95;1752935;81;20289;-57
2022/04/06 06:44:36;;;;;;;;;;;;;;;9.96;59.67;100020.54;1754467;81;20245;-60
2022/04/06 06:47:43;;;;;;;;;;;;;;;9.94;59.27;100016.30;1744318;81;20249;-60
2022/04/06 06:50:48;;;;;;;;;;;;;;;9.96;59.29;100020.54;1750726;81;20210;-57
2022/04/06 06:53:54;;;;;;;;;;;;;;;9.96;59.32;100012.84;1762155;81;20229;-58
2022/04/06 06:57:11;;;;;;;;;;;;;;;10.03;59.14;100005.63;1872734;76;20572;-58
2022/04/06 07:00:18;;;;;;;;;;;;;;;9.99;59.21;100011.97;1827991;77;20305;-62
2022/04/06 07:03:24;;;;;;;;;;;;;;;10.02;59.43;100022.55;1825043;78;20277;-59
2022/04/06 07:06:32;;;;;;;;;;;;;;;10.07;59.30;100026.99;1813707;78;20590;-57
2022/04/06 07:09:42;;;;;;;;;;;;;;;10.09;58.76;100035.88;1840611;78;20237;-58
2022/04/06 07:12:49;;;;;;;;;;;;;;;10.05;58.58;100038.59;1835712;77;20254;-58
2022/04/06 07:16:21;;;;;;;;;;;;;;;10.09;58.23;100049.55;1839946;77;20246;-58
2022/04/06 07:20:01;;;;;;;;;;;;;;;10.12;58.19;100059.26;1846231;78;20313;-55
2022/04/06 07:23:38;;;;;;;;;;;;;;;10.16;57.76;100059.25;1845559;78;20330;-59
2022/04/06 07:26:58;;;;;;;;;;;;;;;10.26;57.02;100063.95;1822541;76;20670;-60
2022/04/06 07:30:50;;;;;;;;;;;;;;;10.26;55.86;100064.81;1831777;78;20215;-59
2022/04/06 07:34:16;;;;;;;;;;;;;;;10.37;55.04;100073.96;1847477;77;20186;-56
2022/04/06 07:38:12;;;;;;;;;;;;;;;10.45;55.11;100075.27;1777646;78;20271;-57
2022/04/06 07:41:24;;;;;;;;;;;;;;;10.52;55.10;100065.31;1766977;79;20764;-58
2022/04/06 07:44:35;;;;;;;;;;;;;;;10.70;55.02;100062.77;1769112;80;20260;-60
2022/04/06 07:47:40;;;;;;;;;;;;;;;10.86;53.66;100070.84;1782626;80;20277;-57
2022/04/06 07:50:46;;;;;;;;;;;;;;;10.95;53.43;100073.82;1792640;77;20558;-60
2022/04/06 07:53:54;;;;;;;;;;;;;;;10.99;52.84;100072.43;1771133;81;20221;-59
2022/04/06 07:56:59;;;;;;;;;;;;;;;10.98;52.23;100083.89;1747540;81;20257;-60
2022/04/06 08:00:09;;;;;;;;;;;;;;;11.09;52.32;100067.52;1729508;83;20567;-58
2022/04/06 08:03:14;;;;;;;;;;;;;;;11.21;52.30;100073.72;1759984;80;20239;-61
2022/04/06 08:06:24;;;;;;;;;;;;;;;11.32;51.98;100069.68;1784769;80;20203;-63
2022/04/06 08:09:29;;;;;;;;;;;;;;;11.45;51.72;100075.33;1783225;80;20576;-60
2022/04/06 08:12:35;;;;;;;;;;;;;;;11.55;51.01;100075.40;1780773;80;20242;-60
2022/04/06 08:15:41;;;;;;;;;;;;;;;11.56;50.57;100082.57;1776219;80;20513;-61
2022/04/06 08:18:47;;;;;;;;;;;;;;;11.60;49.74;100072.94;1777994;80;20215;-62
2022/04/06 08:21:52;;;;;;;;;;;;;;;11.56;49.59;100072.15;1763080;80;20624;-61
2022/04/06 08:24:58;;;;;;;;;;;;;;;11.52;49.38;100071.67;1774184;80;20211;-60
2022/04/06 08:28:05;;;;;;;;;;;;;;;11.56;49.81;100070.78;1747340;81;20612;-62
2022/04/06 08:31:11;;;;;;;;;;;;;;;11.70;49.62;100079.55;1716581;82;20216;-63
2022/04/06 08:34:15;;;;;;;;;;;;;;;11.84;48.73;100078.67;1773646;80;20242;-60
2022/04/06 08:37:21;;;;;;;;;;;;;;;11.82;48.10;100074.75;1784371;80;20525;-60
2022/04/06 08:40:26;;;;;;;;;;;;;;;11.86;47.54;100062.34;1775374;79;20218;-58
2022/04/06 08:43:32;;;;;;;;;;;;;;;11.93;47.61;100068.77;1752578;79;20239;-60
2022/04/06 08:46:48;;;;;;;;;;;;;;;12.10;46.88;100066.63;1777771;80;20264;-59
2022/04/06 08:50:00;;;;;;;;;;;;;;;12.43;46.94;100060.98;1782336;80;20216;-55
2022/04/06 08:53:14;;;;;;;;;;;;;;;12.77;45.75;100070.73;1710254;78;20200;-57
2022/04/06 08:56:22;;;;;;;;;;;;;;;13.00;45.24;100068.63;1658575;85;20216;-56
2022/04/06 08:59:31;;;;;;;;;;;;;;;13.15;44.22;100059.78;1732071;82;20213;-58
2022/04/06 09:02:35;;;;;;;;;;;;;;;13.18;44.18;100062.64;1732627;82;20209;-57
2022/04/06 09:05:42;;;;;;;;;;;;;;;13.27;44.12;100054.58;1739494;82;20229;-60
2022/04/06 09:08:45;;;;;;;;;;;;;;;13.36;44.01;100061.09;1742890;82;20573;-58
2022/04/06 09:11:39;;;;;;;;;;;;;;;13.48;44.20;100066.34;1747344;80;20291;-58
2022/04/06 09:14:44;;;;;;;;;;;;;;;13.53;44.25;100044.59;1726749;81;20582;-56
2022/04/06 09:17:54;;;;;;;;;;;;;;;13.65;43.91;100060.00;1739259;82;20205;-59
2022/04/06 09:21:09;;;;;;;;;;;;;;;13.70;43.41;100053.89;1743633;82;20569;-60
2022/04/06 09:24:25;;;;;;;;;;;;;;;13.78;43.38;100060.59;1693788;82;20209;-58
2022/04/06 09:27:41;;;;;;;;;;;;;;;13.87;42.85;100051.11;1712889;82;20236;-58
2022/04/06 09:30:53;;;;;;;;;;;;;;;13.89;42.99;100055.33;1744731;81;20220;-58
2022/04/06 09:34:04;;;;;;;;;;;;;;;13.91;43.26;100050.48;1697762;83;20194;-56
2022/04/06 09:37:34;;;;;;;;;;;;;;;13.94;43.53;100042.36;1718423;81;20232;-57
2022/04/06 09:40:41;;;;;;;;;;;;;;;13.98;43.25;100040.36;1721676;82;20536;-55
2022/04/06 09:43:48;;;;;;;;;;;;;;;13.98;43.13;100032.63;1731765;82;20243;-55
2022/04/06 09:50:23;;;;;;;;;;;;;;;14.10;43.28;100037.84;1738243;82;20234;-55
2022/04/06 09:53:34;;;;;;;;;;;;;;;14.13;43.21;100023.14;1743804;79;20647;-57
2022/04/06 09:56:41;;;;;;;;;;;;;;;14.20;43.12;100038.31;1748252;80;20537;-56
2022/04/06 09:59:47;;;;;;;;;;;;;;;14.34;42.89;100031.80;1728316;81;20578;-55
2022/04/06 10:02:55;;;;;;;;;;;;;;;14.54;42.68;100026.65;1744229;81;20279;-57
2022/04/06 10:06:03;;;;;;;;;;;;;;;14.69;42.57;100029.22;1749421;81;20861;-55
2022/04/06 10:09:09;;;;;;;;;;;;;;;14.95;42.35;100014.08;1747638;81;20251;-59
2022/04/06 10:12:16;;;;;;;;;;;;;;;15.19;41.35;100031.31;1732565;81;20240;-63
2022/04/06 10:15:23;;;;;;;;;;;;;;;15.41;41.62;100008.52;1738880;81;20231;-63
2022/04/06 10:18:29;;;;;;;;;;;;;;;15.77;41.48;100024.86;1738909;81;20580;-63
2022/04/06 10:21:53;;;;;;;;;;;;;;;16.00;40.88;100010.51;1754604;81;20301;-64
2022/04/06 10:25:16;;;;;;;;;;;;;;;16.04;39.73;100011.26;1758411;81;20243;-60
2022/04/06 10:28:22;;;;;;;;;;;;;;;16.04;39.91;100016.78;1728934;83;20242;-65
2022/04/06 10:31:28;;;;;;;;;;;;;;;16.05;39.40;99995.52;1729258;83;20210;-64
2022/04/06 10:34:37;;;;;;;;;;;;;;;15.99;39.34;100012.44;1729143;83;20217;-62
2022/04/06 10:37:40;;;;;;;;;;;;;;;15.91;39.28;100016.83;1735290;81;20285;-65
2022/04/06 10:40:55;;;;;;;;;;;;;;;16.07;39.04;100009.95;1746273;81;20208;-61
2022/04/06 10:44:03;;;;;;;;;;;;;;;16.29;39.23;100001.64;1737309;81;20216;-63
2022/04/06 10:47:15;;;;;;;;;;;;;;;16.36;38.76;100017.66;1750286;81;20312;-62
2022/04/06 10:50:27;;;;;;;;;;;;;;;16.14;38.59;100003.33;1759443;81;20220;-62
2022/04/06 10:53:35;;;;;;;;;;;;;;;16.05;38.92;100018.46;1754921;79;20213;-63
2022/04/06 10:57:00;;;;;;;;;;;;;;;15.91;38.77;100009.07;1757399;81;20607;-64
2022/04/06 11:00:25;;;;;;;;;;;;;;;15.81;39.25;100010.09;1744208;82;20255;-64
2022/04/06 11:03:31;;;;;;;;;;;;;;;15.78;38.91;100017.41;1736090;82;20272;-60
2022/04/06 11:06:56;;;;;;;;;;;;;;;15.58;39.07;100011.12;1742942;82;20280;-62
2022/04/06 11:10:17;;;;;;;;;;;;;;;15.48;39.80;100028.64;1743752;81;20226;-63
2022/04/06 11:13:22;;;;;;;;;;;;;;;15.38;39.46;100017.20;1730494;82;20216;-62
2022/04/06 11:16:46;;;;;;;;;;;;;;;15.31;39.74;100019.11;1760818;81;20216;-64
2022/04/06 11:19:57;;;;;;;;;;;;;;;15.34;39.93;100016.77;1763731;81;20216;-63
2022/04/06 11:23:07;;;;;;;;;;;;;;;15.42;40.00;100022.09;1753606;81;20499;-63
2022/04/06 11:26:09;;;;;;;;;;;;;;;15.72;39.65;100019.14;1762969;81;20643;-63
2022/04/06 11:29:15;;;;;;;;;;;;;;;15.92;39.26;100007.47;1764637;80;20224;-59
2022/04/06 11:32:27;;;;;;;;;;;;;;;16.10;38.88;99991.04;1764148;81;20224;-63
2022/04/06 11:35:40;;;;;;;;;;;;;;;16.21;38.01;100008.81;1757671;81;20216;-64
2022/04/06 11:39:03;;;;;;;;;;;;;;;16.24;38.05;100003.70;1765100;81;20252;-62
2022/04/06 11:42:16;;;;;;;;;;;;;;;16.28;37.85;99998.59;1765369;81;20885;-64
2022/04/06 11:45:40;;;;;;;;;;;;;;;16.33;37.88;100000.16;1717648;82;20261;-70
2022/04/06 11:48:50;;;;;;;;;;;;;;;16.45;37.75;99995.63;1747520;82;20211;-62
2022/04/06 11:51:57;;;;;;;;;;;;;;;16.48;37.80;99986.03;1758137;81;20192;-61
2022/04/06 11:55:03;;;;;;;;;;;;;;;16.39;37.49;99994.55;1755895;77;20230;-64
2022/04/06 11:58:16;;;;;;;;;;;;;;;16.37;37.62;99986.19;1762067;80;20518;-61
2022/04/06 12:01:31;;;;;;;;;;;;;;;16.74;37.88;99976.17;1835852;76;20215;-56
2022/04/06 12:04:48;;;;;;;;;;;;;;;16.99;37.13;99994.45;1780344;79;20213;-57
2022/04/06 12:08:20;;;;;;;;;;;;;;;17.08;36.88;99989.46;1786986;79;20208;-57
2022/04/06 12:11:29;;;;;;;;;;;;;;;17.11;36.73;99998.72;1782895;79;20221;-58
2022/04/06 12:14:35;;;;;;;;;;;;;;;17.11;35.96;99988.48;1791611;79;20241;-57
2022/04/06 12:17:45;;;;;;;;;;;;;;;17.15;36.22;99981.95;1778856;79;20219;-58
2022/04/06 12:20:50;;;;;;;;;;;;;;;17.24;36.08;99983.34;1791411;79;20253;-58
2022/04/06 12:23:57;;;;;;;;;;;;;;;17.17;35.85;100000.00;1737754;81;20547;-56
2022/04/06 12:27:01;;;;;;;;;;;;;;;17.05;35.58;99981.62;1777047;80;20213;-59
2022/04/06 12:30:13;;;;;;;;;;;;;;;16.85;35.67;100002.56;1763221;80;20209;-56
2022/04/06 12:33:19;;;;;;;;;;;;;;;16.86;35.98;100000.09;1768168;80;20214;-56
2022/04/06 12:36:37;;;;;;;;;;;;;;;17.11;36.08;99989.86;1777093;79;20546;-58
2022/04/06 12:40:05;;;;;;;;;;;;;;;17.47;35.52;99996.03;1771795;81;20234;-57
2022/04/06 12:43:30;;;;;;;;;;;;;;;17.90;34.63;99983.77;1792608;79;20565;-56
2022/04/06 12:46:54;;;;;;;;;;;;;;;18.17;34.01;99992.56;1801411;79;20440;-56
2022/04/06 12:50:19;;;;;;;;;;;;;;;18.24;33.54;99978.09;1774981;79;20388;-57
2022/04/06 12:53:23;;;;;;;;;;;;;;;18.09;33.94;99976.30;1782177;79;20244;-56
2022/04/06 12:56:35;;;;;;;;;;;;;;;18.02;34.15;100007.91;1780379;79;20221;-57
2022/04/06 13:00:13;;;;;;;;;;;;;;;17.99;33.87;99981.54;1789692;79;20210;-57
2022/04/06 13:03:17;;;;;;;;;;;;;;;18.06;33.52;99974.53;1791759;79;20248;-55
2022/04/06 13:06:24;;;;;;;;;;;;;;;18.00;33.71;99974.08;1798283;79;20278;-58
2022/04/06 13:09:33;;;;;;;;;;;;;;;17.99;33.65;99979.30;1782110;79;20227;-58
2022/04/06 13:12:40;;;;;;;;;;;;;;;17.88;33.85;99967.09;1797487;79;20542;-56
2022/04/06 13:15:48;;;;;;;;;;;;;;;17.82;33.86;99973.56;1796822;79;20240;-57
2022/04/06 13:18:54;;;;;;;;;;;;;;;17.78;33.91;99965.41;1799544;79;20248;-58
2022/04/06 13:22:00;;;;;;;;;;;;;;;17.73;34.17;99963.86;1772127;80;20674;-58
2022/04/06 13:25:05;;;;;;;;;;;;;;;17.62;33.75;99961.88;1777508;79;20210;-58
2022/04/06 13:28:13;;;;;;;;;;;;;;;17.51;33.98;99971.80;1788460;79;20181;-56
2022/04/06 13:31:19;;;;;;;;;;;;;;;17.44;34.01;99968.25;1744816;81;20808;-59
2022/04/06 13:34:26;;;;;;;;;;;;;;;17.35;34.06;99990.36;1795269;79;20277;-61
2022/04/06 13:37:32;;;;;;;;;;;;;;;17.24;34.21;99981.44;1797679;79;20224;-58
2022/04/06 13:40:46;;;;;;;;;;;;;;;17.11;34.43;99975.20;1797697;79;20275;-58
2022/04/06 13:43:50;;;;;;;;;;;;;;;17.01;34.65;99981.78;1803952;79;20213;-56
2022/04/06 13:46:54;;;;;;;;;;;;;;;16.91;34.85;99974.52;1804670;79;20873;-57
2022/04/06 13:50:00;;;;;;;;;;;;;;;16.82;34.84;99982.80;1804623;79;20209;-56
2022/04/06 13:53:07;;;;;;;;;;;;;;;16.73;35.01;99980.84;1805384;79;20574;-56
2022/04/06 13:56:12;;;;;;;;;;;;;;;16.64;35.04;99984.97;1794268;79;20561;-58
2022/04/06 13:59:21;;;;;;;;;;;;;;;16.54;35.15;99972.17;1789787;79;20249;-60
2022/04/06 14:02:29;;;;;;;;;;;;;;;16.47;35.30;99980.20;1794306;79;20205;-59
2022/04/06 14:05:36;;;;;;;;;;;;;;;16.40;35.36;99982.45;1798681;80;20581;-59
2022/04/06 14:08:46;;;;;;;;;;;;;;;16.36;35.41;99981.19;1799171;80;20249;-58
2022/04/06 14:12:01;;;;;;;;;;;;;;;16.31;35.62;99992.09;1792374;79;20390;-57
2022/04/06 14:15:07;;;;;;;;;;;;;;;16.27;35.80;99978.39;1799022;79;20545;-58
2022/04/06 14:18:12;;;;;;;;;;;;;;;16.24;35.69;99986.27;1786182;79;20290;-59
2022/04/06 14:21:19;;;;;;;;;;;;;;;16.21;35.66;99983.43;1797740;79;20233;-60
2022/04/06 14:24:25;;;;;;;;;;;;;;;16.19;35.71;99980.56;1735436;82;20505;-57
2022/04/06 14:27:31;;;;;;;;;;;;;;;16.19;35.80;99991.08;1803499;79;20205;-59
2022/04/06 14:30:38;;;;;;;;;;;;;;;16.23;35.58;99984.59;1804579;79;20201;-58
2022/04/06 14:33:44;;;;;;;;;;;;;;;16.28;35.49;99981.45;1805891;79;20197;-59
2022/04/06 14:36:50;;;;;;;;;;;;;;;16.34;35.56;99976.45;1802074;79;20565;-58
2022/04/06 14:39:57;;;;;;;;;;;;;;;16.43;35.61;99979.24;1762185;81;20208;-57
2022/04/06 14:43:03;;;;;;;;;;;;;;;16.53;35.39;99978.78;1762299;81;20494;-59
2022/04/06 14:46:06;;;;;;;;;;;;;;;16.58;35.17;99969.81;1762305;81;20212;-59
2022/04/06 14:49:13;;;;;;;;;;;;;;;16.60;35.06;99977.35;1762714;81;20276;-59
2022/04/06 14:52:19;;;;;;;;;;;;;;;16.56;35.20;99974.70;1762775;81;20216;-59
2022/04/06 14:55:25;;;;;;;;;;;;;;;16.57;35.40;99969.52;1753991;81;20198;-57
2022/04/06 14:58:33;;;;;;;;;;;;;;;16.63;35.30;99976.91;1804019;79;20206;-58
2022/04/06 15:01:38;;;;;;;;;;;;;;;16.62;35.19;99972.45;1806631;79;20550;-59
2022/04/06 15:04:47;;;;;;;;;;;;;;;16.55;35.18;99973.89;1796015;79;20304;-59
2022/04/06 15:07:53;;;;;;;;;;;;;;;16.49;35.19;99972.55;1781546;79;20216;-57
2022/04/06 15:11:00;;;;;;;;;;;;;;;16.43;35.01;99982.00;1768706;80;20215;-58
2022/04/06 15:14:06;;;;;;;;;;;;;;;16.37;35.06;99976.00;1757095;81;20189;-58
2022/04/06 15:17:13;;;;;;;;;;;;;;;16.35;35.23;99982.27;1750466;81;20317;-59
2022/04/06 15:20:22;;;;;;;;;;;;;;;16.33;35.22;99973.35;1758566;81;20184;-59
2022/04/06 15:23:26;;;;;;;;;;;;;;;16.33;35.40;99976.11;1760038;81;20517;-57
2022/04/06 15:26:32;;;;;;;;;;;;;;;16.34;35.50;99979.73;1739320;82;20238;-56
2022/04/06 15:29:39;;;;;;;;;;;;;;;16.33;35.56;99981.64;1739283;82;20223;-58
2022/04/06 15:32:48;;;;;;;;;;;;;;;16.32;35.64;99972.20;1738961;82;20218;-58
2022/04/06 15:39:13;;;;;;;;;;;;;;;16.29;35.89;99971.27;1759438;81;20223;-58
2022/04/06 15:42:27;;;;;;;;;;;;;;;16.26;35.80;99971.19;1765600;81;20236;-58
2022/04/06 15:45:33;;;;;;;;;;;;;;;16.23;35.75;99972.16;1769663;81;20270;-58
2022/04/06 15:48:38;;;;;;;;;;;;;;;16.15;35.96;99970.52;1769558;81;20412;-58
2022/04/06 15:51:42;;;;;;;;;;;;;;;16.06;36.13;99971.00;1769919;81;20220;-57
2022/04/06 15:54:48;;;;;;;;;;;;;;;15.95;36.24;99973.08;1765690;80;20224;-56
2022/04/06 15:57:52;;;;;;;;;;;;;;;15.83;36.26;99985.86;1739671;82;20215;-57
2022/04/06 16:01:00;;;;;;;;;;;;;;;15.70;36.59;99986.77;1739399;82;20222;-58
2022/04/06 16:04:05;;;;;;;;;;;;;;;15.62;36.63;99982.86;1750751;79;20247;-58
2022/04/06 16:07:10;;;;;;;;;;;;;;;15.55;36.81;99985.34;1762442;81;20192;-57
2022/04/06 16:10:16;;;;;;;;;;;;;;;15.42;37.02;99988.99;1762086;81;20248;-58
2022/04/06 16:13:21;;;;;;;;;;;;;;;15.32;37.30;99994.63;1789383;80;20210;-58
2022/04/06 16:16:30;;;;;;;;;;;;;;;15.20;37.63;100000.45;1793332;80;20213;-58
2022/04/06 16:19:38;;;;;;;;;;;;;;;15.10;37.88;100000.89;1769666;80;20281;-57
2022/04/06 16:22:45;;;;;;;;;;;;;;;15.01;38.15;100007.70;1774267;80;20257;-57
2022/04/06 16:25:50;;;;;;;;;;;;;;;14.93;38.33;100006.02;1766371;80;20595;-58
2022/04/06 16:29:01;;;;;;;;;;;;;;;14.83;38.54;100000.59;1766009;80;20211;-58
2022/04/06 16:32:07;;;;;;;;;;;;;;;14.74;38.73;100003.26;1784525;80;20577;-58
2022/04/06 16:35:11;;;;;;;;;;;;;;;14.65;38.91;100010.05;1762315;80;20216;-58
2022/04/06 16:38:19;;;;;;;;;;;;;;;14.59;39.18;100015.00;1770675;80;20245;-58